Terminal Aerodrome Forecast
Issued by NWS

Home | Current Version | Previous Version | Text Only | Print | Product List | Glossary On
Versions: 1 2 3 4 5 6 7 8 9 10 11 12 13 14 15 16 17 18 19 20 21 22 23 24 25 26 27 28 29 30 31 32 33
199
FTUS42 KCAE 241948 AAB
TAFOGB
TAF AMD
KOGB 241948Z 2420/2518 18012G22KT P6SM VCTS SCT025 BKN040CB OVC070
      TEMPO 2420/2423 VRB15G30KT 1SM +TSRA BR SCT008 BKN020CB OVC045
     FM250300 23010KT P6SM SCT040
     FM251500 25015G25KT P6SM SCT050=

USA.gov is the U.S. government's official web portal to all federal, state and local government web resources and services.